Time,TemperatureF,DewpointF,PressureIn,WindDirection,WindDirectionDegrees,WindSpeedMPH,WindSpeedGustMPH,Humidity,HourlyPrecipIn,Conditions,Clouds,dailyrainin,SoftwareType,DateUTC
2015-01-30 00:00:00,37.5,21.1,24.62,East,98,15.0,20.0,51,0.00,,OVC120,0.00,VWS V14.01,2015-01-30 07:00:00,
2015-01-30 00:05:00,37.3,21.3,24.62,East,101,17.5,23.8,52,0.00,,OVC080,0.00,VWS V14.01,2015-01-30 07:05:00,
2015-01-30 00:10:00,37.2,21.7,24.62,East,88,12.5,26.2,53,0.00,,OVC080,0.00,VWS V14.01,2015-01-30 07:10:00,
2015-01-30 00:15:00,37.1,22.0,24.62,ESE,114,12.5,17.5,54,0.00,,OVC080,0.00,VWS V14.01,2015-01-30 07:15:00,
2015-01-30 00:20:00,37.0,22.3,24.62,East,94,15.0,20.0,55,0.00,,OVC080,0.00,VWS V14.01,2015-01-30 07:20:00,
2015-01-30 00:25:00,36.7,22.9,24.62,ESE,115,17.5,23.8,57,0.00,,OVC080,0.00,VWS V14.01,2015-01-30 07:25:00,
2015-01-30 00:30:00,36.5,23.5,24.61,ESE,106,15.0,23.8,59,0.00,,OVC080,0.00,VWS V14.01,2015-01-30 07:30:00,
2015-01-30 00:35:00,36.2,23.6,24.62,East,87,18.8,35.0,60,0.00,,,0.00,VWS V14.01,2015-01-30 07:35:00,
2015-01-30 00:40:00,35.8,24.8,24.61,East,101,26.2,26.2,64,0.00,,,0.00,VWS V14.01,2015-01-30 07:40:00,
2015-01-30 00:45:00,35.4,25.2,24.60,ESE,108,15.0,20.0,66,0.00,,,0.00,VWS V14.01,2015-01-30 07:45:00,
2015-01-30 00:50:00,35.0,25.5,24.60,ESE,108,16.2,18.8,68,0.00,,,0.00,VWS V14.01,2015-01-30 07:50:00,
2015-01-30 00:55:00,34.7,25.9,24.60,ESE,112,16.2,22.5,70,0.00,,,0.00,VWS V14.01,2015-01-30 07:55:00,
2015-01-30 01:00:00,34.4,26.0,24.60,East,101,15.0,20.0,71,0.00,,,0.00,VWS V14.01,2015-01-30 08:00:00,
2015-01-30 01:05:00,34.0,26.6,24.60,ENE,61,16.2,20.0,74,0.00,,,0.00,VWS V14.01,2015-01-30 08:05:00,
2015-01-30 01:10:00,33.5,26.8,24.60,East,99,12.5,21.2,76,0.00,,,0.00,VWS V14.01,2015-01-30 08:10:00,
2015-01-30 01:15:00,33.1,26.7,24.59,East,96,15.0,22.5,77,0.00,,,0.00,VWS V14.01,2015-01-30 08:15:00,
2015-01-30 01:20:00,33.0,26.9,24.59,East,95,8.8,22.5,78,0.00,,,0.00,VWS V14.01,2015-01-30 08:20:00,
2015-01-30 01:25:00,32.9,27.1,24.59,East,101,7.5,16.2,79,0.00,,,0.00,VWS V14.01,2015-01-30 08:25:00,
2015-01-30 01:30:00,32.8,27.4,24.60,East,81,13.8,21.2,80,0.00,,,0.00,VWS V14.01,2015-01-30 08:30:00,
2015-01-30 01:35:00,32.8,27.4,24.60,East,90,20.0,20.0,80,0.00,,,0.00,VWS V14.01,2015-01-30 08:35:00,
2015-01-30 01:40:00,32.7,27.2,24.59,ESE,105,10.0,11.2,80,0.00,,,0.00,VWS V14.01,2015-01-30 08:40:00,
2015-01-30 01:45:00,32.5,27.4,24.60,East,99,8.8,15.0,81,0.00,,,0.00,VWS V14.01,2015-01-30 08:45:00,
2015-01-30 01:50:00,32.3,27.5,24.60,East,91,8.8,17.5,82,0.00,,,0.00,VWS V14.01,2015-01-30 08:50:00,
2015-01-30 01:55:00,32.0,27.2,24.60,East,93,13.8,13.8,82,0.00,,,0.00,VWS V14.01,2015-01-30 08:55:00,
2015-01-30 02:00:00,32.0,27.4,24.59,ESE,104,11.2,20.0,83,0.00,,,0.00,VWS V14.01,2015-01-30 09:00:00,
2015-01-30 02:05:00,31.9,27.3,24.59,East,91,3.8,8.8,83,0.00,,,0.00,VWS V14.01,2015-01-30 09:05:00,
2015-01-30 02:10:00,32.0,27.4,24.59,East,84,8.8,17.5,83,0.00,,,0.00,VWS V14.01,2015-01-30 09:10:00,
2015-01-30 02:15:00,32.0,27.2,24.59,ESE,105,11.2,11.2,82,0.00,,,0.00,VWS V14.01,2015-01-30 09:15:00,
2015-01-30 02:20:00,32.2,27.1,24.59,ESE,104,16.2,16.2,81,0.00,,,0.00,VWS V14.01,2015-01-30 09:20:00,
2015-01-30 02:25:00,32.4,27.0,24.59,ESE,112,12.5,12.5,80,0.00,,,0.00,VWS V14.01,2015-01-30 09:25:00,
2015-01-30 02:30:00,32.4,27.0,24.58,East,86,5.0,12.5,80,0.00,,,0.00,VWS V14.01,2015-01-30 09:30:00,
2015-01-30 02:35:00,32.5,26.8,24.58,East,85,7.5,16.2,79,0.00,,,0.00,VWS V14.01,2015-01-30 09:35:00,
2015-01-30 02:40:00,32.5,26.8,24.58,East,81,7.5,12.5,79,0.00,,,0.00,VWS V14.01,2015-01-30 09:40:00,
2015-01-30 02:45:00,32.6,26.9,24.58,East,84,6.2,16.2,79,0.00,,,0.00,VWS V14.01,2015-01-30 09:45:00,
2015-01-30 02:50:00,32.6,26.9,24.58,East,95,6.2,10.0,79,0.00,,,0.00,VWS V14.01,2015-01-30 09:50:00,
2015-01-30 02:55:00,32.6,26.9,24.57,ENE,78,6.2,11.2,79,0.00,,,0.00,VWS V14.01,2015-01-30 09:55:00,
2015-01-30 03:00:00,32.6,26.5,24.57,East,92,17.5,18.8,78,0.00,,,0.00,VWS V14.01,2015-01-30 10:00:00,
2015-01-30 03:05:00,32.7,26.6,24.58,East,87,13.8,13.8,78,0.00,,OVC065,0.00,VWS V14.01,2015-01-30 10:05:00,
2015-01-30 03:10:00,32.7,26.6,24.58,East,97,16.2,21.2,78,0.00,,OVC065,0.00,VWS V14.01,2015-01-30 10:10:00,
2015-01-30 03:15:00,32.8,26.4,24.56,East,99,13.8,16.2,77,0.00,,OVC065,0.00,VWS V14.01,2015-01-30 10:15:00,
2015-01-30 03:20:00,32.8,26.4,24.56,East,87,15.0,17.5,77,0.00,,OVC065,0.00,VWS V14.01,2015-01-30 10:20:00,
2015-01-30 03:25:00,32.8,26.4,24.56,East,81,6.2,18.8,77,0.00,,OVC065,0.00,VWS V14.01,2015-01-30 10:25:00,
2015-01-30 03:30:00,32.8,26.4,24.56,East,93,15.0,18.8,77,0.00,,OVC065,0.00,VWS V14.01,2015-01-30 10:30:00,
2015-01-30 03:35:00,32.9,26.5,24.56,East,100,3.8,12.5,77,0.00,,OVC065,0.00,VWS V14.01,2015-01-30 10:35:00,
2015-01-30 03:40:00,32.9,26.5,24.56,SE,124,10.0,12.5,77,0.00,,OVC065,0.00,VWS V14.01,2015-01-30 10:40:00,
2015-01-30 03:45:00,32.9,26.5,24.56,East,93,8.8,12.5,77,0.00,,OVC065,0.00,VWS V14.01,2015-01-30 10:45:00,
2015-01-30 03:50:00,32.9,26.2,24.56,East,94,8.8,22.5,76,0.00,,OVC065,0.00,VWS V14.01,2015-01-30 10:50:00,
2015-01-30 03:55:00,32.9,26.2,24.55,East,101,7.5,16.2,76,0.00,,OVC065,0.00,VWS V14.01,2015-01-30 10:55:00,
2015-01-30 04:00:00,32.9,26.5,24.55,East,96,13.8,21.2,77,0.00,,OVC065,0.00,VWS V14.01,2015-01-30 11:00:00,
2015-01-30 04:05:00,32.8,26.4,24.55,East,99,13.8,17.5,77,0.00,,OVC055,0.00,VWS V14.01,2015-01-30 11:05:00,
2015-01-30 04:10:00,32.8,26.4,24.55,ESE,108,12.5,12.5,77,0.00,,OVC055,0.00,VWS V14.01,2015-01-30 11:10:00,
2015-01-30 04:15:00,32.8,26.4,24.55,ESE,104,8.8,8.8,77,0.00,,OVC055,0.00,VWS V14.01,2015-01-30 11:15:00,
2015-01-30 04:20:00,32.7,26.0,24.54,East,99,12.5,15.0,76,0.00,,OVC055,0.00,VWS V14.01,2015-01-30 11:20:00,
2015-01-30 04:25:00,32.8,26.1,24.54,East,82,3.8,18.8,76,0.00,,OVC055,0.00,VWS V14.01,2015-01-30 11:25:00,
2015-01-30 04:30:00,32.8,26.1,24.54,ENE,78,3.8,12.5,76,0.00,,OVC055,0.00,VWS V14.01,2015-01-30 11:30:00,
2015-01-30 04:35:00,32.8,26.4,24.53,ESE,102,3.8,15.0,77,0.00,,OVC055,0.00,VWS V14.01,2015-01-30 11:35:00,
2015-01-30 04:40:00,32.7,26.3,24.54,East,94,8.8,17.5,77,0.00,,OVC055,0.00,VWS V14.01,2015-01-30 11:40:00,
2015-01-30 04:45:00,32.8,26.4,24.53,East,86,11.2,15.0,77,0.00,,OVC055,0.00,VWS V14.01,2015-01-30 11:45:00,
2015-01-30 04:50:00,32.8,26.1,24.53,East,86,17.5,17.5,76,0.00,,OVC055,0.00,VWS V14.01,2015-01-30 11:50:00,
2015-01-30 04:55:00,32.7,26.0,24.53,East,97,8.8,22.5,76,0.00,,OVC055,0.00,VWS V14.01,2015-01-30 11:55:00,
2015-01-30 05:00:00,32.8,26.1,24.53,ESE,118,5.0,13.8,76,0.00,,OVC055,0.00,VWS V14.01,2015-01-30 12:00:00,
2015-01-30 05:05:00,32.8,26.1,24.53,ENE,74,5.0,15.0,76,0.00,,OVC032,0.00,VWS V14.01,2015-01-30 12:05:00,
2015-01-30 05:10:00,32.7,26.3,24.52,ESE,108,10.0,12.5,77,0.00,,OVC032,0.00,VWS V14.01,2015-01-30 12:10:00,
2015-01-30 05:15:00,32.7,26.6,24.53,East,79,3.8,12.5,78,0.00,,OVC032,0.00,VWS V14.01,2015-01-30 12:15:00,
2015-01-30 05:20:00,32.6,26.5,24.52,East,88,12.5,21.2,78,0.00,,OVC032,0.00,VWS V14.01,2015-01-30 12:20:00,
2015-01-30 05:25:00,32.5,26.8,24.53,East,86,7.5,7.5,79,0.00,,OVC032,0.00,VWS V14.01,2015-01-30 12:25:00,
2015-01-30 05:30:00,32.4,26.7,24.52,ENE,76,16.2,22.5,79,0.00,,OVC032,0.00,VWS V14.01,2015-01-30 12:30:00,
2015-01-30 05:35:00,32.3,26.9,24.52,East,100,13.8,13.8,80,0.00,,OVC032,0.00,VWS V14.01,2015-01-30 12:35:00,
2015-01-30 05:40:00,32.3,26.6,24.53,East,98,8.8,13.8,79,0.00,,OVC032,0.00,VWS V14.01,2015-01-30 12:40:00,
2015-01-30 05:45:00,32.3,26.6,24.52,East,84,8.8,13.8,79,0.00,,OVC032,0.00,VWS V14.01,2015-01-30 12:45:00,
2015-01-30 05:50:00,32.3,26.6,24.52,ESE,111,10.0,22.5,79,0.00,,OVC032,0.00,VWS V14.01,2015-01-30 12:50:00,
2015-01-30 05:55:00,32.2,26.8,24.52,ENE,76,7.5,10.0,80,0.00,,OVC032,0.00,VWS V14.01,2015-01-30 12:55:00,
2015-01-30 06:00:00,32.1,26.7,24.51,ESE,107,13.8,13.8,80,0.00,,OVC032,0.00,VWS V14.01,2015-01-30 13:00:00,
2015-01-30 06:05:00,32.1,26.7,24.52,ESE,112,7.5,8.8,80,0.00,,,0.00,VWS V14.01,2015-01-30 13:05:00,
2015-01-30 06:10:00,32.2,26.8,24.51,ESE,108,7.5,10.0,80,0.00,,,0.00,VWS V14.01,2015-01-30 13:10:00,
2015-01-30 06:15:00,32.2,26.8,24.52,ESE,105,6.2,8.8,80,0.00,,,0.00,VWS V14.01,2015-01-30 13:15:00,
2015-01-30 06:20:00,32.2,26.8,24.51,ESE,105,8.8,12.5,80,0.00,,,0.00,VWS V14.01,2015-01-30 13:20:00,
2015-01-30 06:25:00,32.2,26.8,24.51,East,98,7.5,8.8,80,0.00,,,0.00,VWS V14.01,2015-01-30 13:25:00,
2015-01-30 06:30:00,32.2,26.8,24.52,East,79,11.2,12.5,80,0.00,,,0.00,VWS V14.01,2015-01-30 13:30:00,
2015-01-30 06:35:00,32.3,26.9,24.52,East,92,11.2,15.0,80,0.00,,,0.00,VWS V14.01,2015-01-30 13:35:00,
2015-01-30 06:40:00,32.2,27.1,24.52,ESE,119,8.8,10.0,81,0.00,,,0.00,VWS V14.01,2015-01-30 13:40:00,
2015-01-30 06:45:00,32.0,26.9,24.52,ESE,108,5.0,10.0,81,0.00,,,0.00,VWS V14.01,2015-01-30 13:45:00,
2015-01-30 06:50:00,32.0,27.2,24.51,East,95,8.8,8.8,82,0.00,,,0.00,VWS V14.01,2015-01-30 13:50:00,
2015-01-30 06:55:00,32.0,27.1,24.52,ESE,119,5.0,8.8,82,0.00,,,0.00,VWS V14.01,2015-01-30 13:55:00,
2015-01-30 07:00:00,31.9,27.3,24.52,SE,131,8.8,11.2,83,0.00,,,0.00,VWS V14.01,2015-01-30 14:00:00,
2015-01-30 07:05:00,31.8,27.2,24.53,ESE,116,10.0,13.8,83,0.00,,,0.00,VWS V14.01,2015-01-30 14:05:00,
2015-01-30 07:10:00,31.6,27.3,24.52,ESE,111,10.0,13.8,84,0.00,,,0.00,VWS V14.01,2015-01-30 14:10:00,
2015-01-30 07:15:00,31.5,27.5,24.52,ESE,120,8.8,12.5,85,0.00,,,0.00,VWS V14.01,2015-01-30 14:15:00,
2015-01-30 07:20:00,31.4,27.4,24.52,ESE,108,5.0,11.2,85,0.00,,,0.00,VWS V14.01,2015-01-30 14:20:00,
2015-01-30 07:25:00,31.4,27.4,24.51,ESE,115,3.8,7.5,85,0.00,,,0.00,VWS V14.01,2015-01-30 14:25:00,
2015-01-30 07:30:00,31.3,27.6,24.51,East,96,11.2,15.0,86,0.00,,,0.00,VWS V14.01,2015-01-30 14:30:00,
2015-01-30 07:35:00,31.4,27.4,24.51,East,91,6.2,12.5,85,0.00,,,0.00,VWS V14.01,2015-01-30 14:35:00,
2015-01-30 07:40:00,31.4,27.4,24.50,East,97,11.2,13.8,85,0.00,,,0.00,VWS V14.01,2015-01-30 14:40:00,
2015-01-30 07:45:00,31.5,27.5,24.50,ESE,102,7.5,10.0,85,0.00,,,0.00,VWS V14.01,2015-01-30 14:45:00,
2015-01-30 07:50:00,31.5,27.5,24.50,ESE,104,5.0,10.0,85,0.00,,,0.00,VWS V14.01,2015-01-30 14:50:00,
2015-01-30 07:55:00,31.5,27.5,24.50,ESE,118,7.5,10.0,85,0.00,,,0.00,VWS V14.01,2015-01-30 14:55:00,
2015-01-30 08:00:00,31.4,27.7,24.51,ESE,115,7.5,10.0,86,0.00,,,0.00,VWS V14.01,2015-01-30 15:00:00,
2015-01-30 08:05:00,31.4,27.7,24.51,East,88,5.0,8.8,86,0.00,,,0.00,VWS V14.01,2015-01-30 15:05:00,
2015-01-30 08:10:00,31.3,27.6,24.50,SE,128,7.5,8.8,86,0.00,,,0.00,VWS V14.01,2015-01-30 15:10:00,
2015-01-30 08:15:00,31.3,27.6,24.50,SE,128,10.0,10.0,86,0.00,,,0.00,VWS V14.01,2015-01-30 15:15:00,
2015-01-30 08:20:00,31.3,27.6,24.50,SE,126,10.0,10.0,86,0.00,,,0.00,VWS V14.01,2015-01-30 15:20:00,
2015-01-30 08:25:00,31.4,27.7,24.50,ENE,72,7.5,16.2,86,0.00,,,0.00,VWS V14.01,2015-01-30 15:25:00,
2015-01-30 08:30:00,31.5,27.5,24.50,East,85,6.2,13.8,85,0.00,,,0.00,VWS V14.01,2015-01-30 15:30:00,
2015-01-30 08:35:00,31.6,27.6,24.50,ESE,103,5.0,15.0,85,0.00,,,0.00,VWS V14.01,2015-01-30 15:35:00,
2015-01-30 08:40:00,31.5,27.8,24.50,ESE,116,15.0,15.0,86,0.00,,,0.00,VWS V14.01,2015-01-30 15:40:00,
2015-01-30 08:45:00,31.5,27.8,24.50,ESE,109,5.0,7.5,86,0.00,,,0.00,VWS V14.01,2015-01-30 15:45:00,
2015-01-30 08:50:00,31.5,27.8,24.51,ENE,77,16.2,16.2,86,0.00,,,0.00,VWS V14.01,2015-01-30 15:50:00,
2015-01-30 08:55:00,31.5,27.8,24.51,East,101,7.5,7.5,86,0.00,,,0.00,VWS V14.01,2015-01-30 15:55:00,
2015-01-30 09:00:00,31.4,27.7,24.50,ESE,121,11.2,11.2,86,0.00,,,0.00,VWS V14.01,2015-01-30 16:00:00,
2015-01-30 09:05:00,31.4,28.0,24.51,ESE,110,8.8,11.2,87,0.00,,,0.00,VWS V14.01,2015-01-30 16:05:00,
2015-01-30 09:10:00,31.4,28.0,24.50,SE,127,5.0,11.2,87,0.00,,,0.00,VWS V14.01,2015-01-30 16:10:00,
2015-01-30 09:15:00,31.4,28.0,24.50,ESE,108,8.8,12.5,87,0.00,,,0.00,VWS V14.01,2015-01-30 16:15:00,
2015-01-30 09:20:00,31.4,28.0,24.50,East,99,7.5,12.5,87,0.00,,,0.00,VWS V14.01,2015-01-30 16:20:00,
2015-01-30 09:25:00,31.4,28.0,24.50,East,93,12.5,18.8,87,0.00,,,0.00,VWS V14.01,2015-01-30 16:25:00,